Time;durP1;ratioP1;P1;durP2;ratioP2;P2;SDS_P1;SDS_P2;PMS_P1;PMS_P2;Temp;Humidity;BMP_temperature;BMP_pressure;BME280_temperature;BME280_humidity;BME280_pressure;Samples;Min_cycle;Max_cycle;Signal;HPM_P1;HPM_P2
2021/12/16 06:00:10;;;;;;;22.73;18.47;;;6.50;97.20;;;;;;1708558;28;20183;-78
2021/12/16 06:01:04;;;;;;;25.63;19.83;;;6.50;97.20;;;;;;1707698;28;20241;-78
2021/12/16 06:01:56;;;;;;;24.80;20.58;;;6.50;97.20;;;;;;1708574;28;20226;-78
2021/12/16 06:02:47;;;;;;;24.30;19.35;;;6.50;97.20;;;;;;1708506;28;20628;-78
2021/12/16 06:03:40;;;;;;;23.10;17.90;;;6.50;97.20;;;;;;1708551;28;20221;-78
2021/12/16 06:04:33;;;;;;;24.77;19.05;;;6.60;97.20;;;;;;1708523;28;20211;-78
2021/12/16 06:05:25;;;;;;;23.92;19.15;;;6.60;97.20;;;;;;1708456;29;20206;-78
2021/12/16 06:06:16;;;;;;;25.85;19.67;;;6.60;97.20;;;;;;1708296;29;20209;-78
2021/12/16 06:07:09;;;;;;;23.98;18.02;;;6.60;97.20;;;;;;1708545;28;20225;-78
2021/12/16 06:08:00;;;;;;;23.90;17.98;;;6.60;97.20;;;;;;1708330;28;20202;-78
2021/12/16 06:08:54;;;;;;;25.30;19.83;;;6.60;97.20;;;;;;1708277;29;20658;-78
2021/12/16 06:09:45;;;;;;;23.15;18.90;;;6.60;97.20;;;;;;1708446;29;20206;-78
2021/12/16 06:11:12;;;;;;;23.77;17.83;;;6.60;97.20;;;;;;1708316;28;20230;-78
2021/12/16 06:12:00;;;;;;;22.60;17.23;;;6.60;97.20;;;;;;1708346;28;20234;-78
2021/12/16 06:12:51;;;;;;;23.90;18.08;;;6.60;97.20;;;;;;1708592;28;20264;-78
2021/12/16 06:13:49;;;;;;;24.17;19.37;;;6.60;97.20;;;;;;1708354;29;20253;-78
2021/12/16 06:14:51;;;;;;;22.98;17.92;;;6.70;97.20;;;;;;1708476;29;20213;-78
2021/12/16 06:15:58;;;;;;;26.70;20.23;;;6.70;97.20;;;;;;1708415;28;20574;-78
2021/12/16 06:26:26;;;;;;;27.67;21.33;;;6.70;97.20;;;;;;1701879;29;20266;-78
2021/12/16 06:26:49;;;;;;;27.55;21.33;;;6.80;97.20;;;;;;1701826;29;20731;-78
2021/12/16 06:27:45;;;;;;;25.15;19.58;;;6.80;97.20;;;;;;1701764;29;20203;-79
2021/12/16 06:28:37;;;;;;;26.40;19.45;;;6.80;97.20;;;;;;1701766;29;20355;-78
2021/12/16 06:29:29;;;;;;;25.75;19.60;;;6.80;97.20;;;;;;1701666;29;20199;-78
2021/12/16 06:30:25;;;;;;;27.98;21.17;;;6.80;97.20;;;;;;1703339;29;20218;-78
2021/12/16 06:31:17;;;;;;;25.27;19.45;;;6.80;97.20;;;;;;1708455;28;20657;-78
2021/12/16 06:32:09;;;;;;;28.00;19.85;;;6.80;97.20;;;;;;1708442;28;20669;-78
2021/12/16 06:33:00;;;;;;;28.02;21.02;;;6.80;97.20;;;;;;1708306;29;20206;-78
2021/12/16 06:33:51;;;;;;;26.60;19.38;;;6.80;97.20;;;;;;1708517;28;20199;-78
2021/12/16 06:34:43;;;;;;;25.75;19.88;;;6.80;97.20;;;;;;1709380;29;20708;-78
2021/12/16 06:35:35;;;;;;;24.73;19.75;;;6.80;97.20;;;;;;1709615;28;20210;-78
2021/12/16 06:36:26;;;;;;;25.92;19.35;;;6.80;97.20;;;;;;1708326;28;20705;-78
2021/12/16 06:37:18;;;;;;;24.98;18.92;;;6.80;97.20;;;;;;1708965;28;20556;-78
2021/12/16 06:38:09;;;;;;;28.20;19.17;;;6.80;97.20;;;;;;1709044;29;20202;-78
2021/12/16 06:39:01;;;;;;;26.95;18.98;;;6.80;97.20;;;;;;1709081;29;20211;-78
2021/12/16 06:39:52;;;;;;;26.13;19.65;;;6.80;97.20;;;;;;1709330;29;20206;-78
2021/12/16 06:40:44;;;;;;;25.40;18.95;;;6.80;97.20;;;;;;1708946;28;20327;-78
2021/12/16 06:41:36;;;;;;;25.55;19.17;;;6.90;97.20;;;;;;1709387;29;20205;-78
2021/12/16 06:42:29;;;;;;;26.15;20.23;;;6.80;97.20;;;;;;1709387;28;20199;-78
2021/12/16 06:43:21;;;;;;;27.48;19.80;;;6.90;97.20;;;;;;1709626;28;20206;-78
2021/12/16 06:44:19;;;;;;;26.13;20.15;;;6.90;97.20;;;;;;1709173;29;20229;-78
2021/12/16 06:45:16;;;;;;;26.83;19.83;;;6.90;97.20;;;;;;1709683;28;20290;-78
2021/12/16 06:46:12;;;;;;;26.63;19.33;;;6.90;97.20;;;;;;1709757;29;20206;-78
2021/12/16 06:47:09;;;;;;;25.42;19.30;;;7.00;97.20;;;;;;1709850;28;20202;-78
2021/12/16 06:48:04;;;;;;;27.10;19.00;;;7.00;97.20;;;;;;1709916;28;20215;-78
2021/12/16 06:48:58;;;;;;;29.02;20.67;;;7.00;97.20;;;;;;1709216;29;20318;-77
2021/12/16 06:49:52;;;;;;;25.98;18.70;;;7.00;97.20;;;;;;1709677;28;20207;-78
2021/12/16 06:50:49;;;;;;;28.27;20.65;;;7.00;97.20;;;;;;1709007;28;20722;-78
2021/12/16 06:51:48;;;;;;;25.65;19.00;;;7.00;97.20;;;;;;1708922;28;20199;-78
2021/12/16 06:52:45;;;;;;;29.02;20.80;;;7.00;97.20;;;;;;1708559;28;20213;-78
2021/12/16 06:53:47;;;;;;;30.20;21.17;;;6.90;97.20;;;;;;1708241;29;20215;-78
2021/12/16 06:54:52;;;;;;;27.15;20.52;;;6.90;97.20;;;;;;1708391;28;20731;-78
2021/12/16 06:55:50;;;;;;;27.60;19.38;;;6.90;97.20;;;;;;1707904;29;20570;-78
2021/12/16 06:56:49;;;;;;;26.48;20.48;;;7.00;97.20;;;;;;1708214;28;20768;-78
2021/12/16 06:57:45;;;;;;;26.80;19.88;;;7.00;97.20;;;;;;1708263;28;20199;-78
2021/12/16 06:58:40;;;;;;;29.10;20.20;;;7.00;97.20;;;;;;1708011;28;20694;-77
2021/12/16 06:59:35;;;;;;;30.30;20.13;;;7.00;97.20;;;;;;1709151;29;20195;-77
2021/12/16 07:00:36;;;;;;;27.52;19.90;;;7.00;97.20;;;;;;1710423;28;20206;-78
2021/12/16 07:01:37;;;;;;;27.52;19.98;;;6.90;97.20;;;;;;1709873;28;20190;-78
2021/12/16 07:03:47;;;;;;;26.17;19.85;;;7.00;97.20;;;;;;1709146;29;20298;-78
2021/12/16 07:04:39;;;;;;;28.52;20.90;;;7.00;97.20;;;;;;1712114;28;20353;-78
2021/12/16 07:05:33;;;;;;;29.90;21.27;;;7.00;97.20;;;;;;1711921;28;20568;-78
2021/12/16 07:06:27;;;;;;;28.90;19.90;;;7.00;97.20;;;;;;1711921;28;20645;-78
2021/12/16 07:07:19;;;;;;;26.63;20.27;;;7.00;97.20;;;;;;1711894;28;20199;-78
2021/12/16 07:08:13;;;;;;;28.08;19.98;;;7.00;97.20;;;;;;1711921;28;20234;-78
2021/12/16 07:09:11;;;;;;;25.73;19.10;;;7.00;97.20;;;;;;1710836;28;20195;-78
2021/12/16 07:10:04;;;;;;;26.48;19.38;;;7.00;97.20;;;;;;1710892;28;20213;-78
2021/12/16 07:10:57;;;;;;;26.67;20.10;;;6.90;97.20;;;;;;1711378;28;20230;-76
2021/12/16 07:11:52;;;;;;;28.90;19.80;;;6.90;97.20;;;;;;1710385;28;20245;-76
2021/12/16 07:12:47;;;;;;;27.23;20.25;;;6.90;97.20;;;;;;1710104;28;20278;-76
2021/12/16 07:13:42;;;;;;;27.40;20.90;;;6.90;97.20;;;;;;1709528;28;20273;-76
2021/12/16 07:14:36;;;;;;;25.35;18.85;;;7.00;97.20;;;;;;1708349;28;20678;-76
2021/12/16 07:15:30;;;;;;;29.20;19.60;;;7.00;97.20;;;;;;1708585;28;20199;-76
2021/12/16 07:16:22;;;;;;;26.73;19.80;;;7.10;97.20;;;;;;1710133;28;20233;-79
2021/12/16 07:17:17;;;;;;;25.48;18.67;;;7.10;97.20;;;;;;1709666;28;20291;-79
2021/12/16 07:18:09;;;;;;;26.40;19.48;;;7.10;97.20;;;;;;1709383;28;20206;-79
2021/12/16 07:19:00;;;;;;;26.80;19.55;;;7.00;97.20;;;;;;1702857;28;20260;-78
2021/12/16 07:19:51;;;;;;;27.75;20.42;;;7.00;97.20;;;;;;1708564;28;20210;-78
2021/12/16 07:20:43;;;;;;;27.83;18.87;;;6.90;97.20;;;;;;1708723;28;20214;-78
2021/12/16 07:21:38;;;;;;;28.45;20.33;;;6.90;97.20;;;;;;1709285;28;20469;-79
2021/12/16 07:22:29;;;;;;;27.55;19.88;;;6.80;97.20;;;;;;1715301;28;20733;-79
2021/12/16 07:23:20;;;;;;;30.10;20.58;;;6.80;97.20;;;;;;1709678;28;20199;-78
2021/12/16 07:24:15;;;;;;;28.05;19.85;;;6.80;97.20;;;;;;1708754;28;20658;-79
2021/12/16 07:25:07;;;;;;;30.05;21.08;;;6.80;97.20;;;;;;1710234;28;20210;-79
2021/12/16 07:25:59;;;;;;;30.52;19.38;;;6.80;97.20;;;;;;1709930;28;20629;-78
2021/12/16 07:26:50;;;;;;;28.95;20.48;;;6.80;97.20;;;;;;1710196;28;20205;-78
2021/12/16 07:27:43;;;;;;;29.53;20.70;;;6.80;97.20;;;;;;1709321;28;20294;-79
2021/12/16 07:28:33;;;;;;;29.60;20.92;;;6.80;97.20;;;;;;1708584;28;20454;-79
2021/12/16 07:29:27;;;;;;;30.67;20.70;;;6.80;97.20;;;;;;1708533;28;20211;-79
2021/12/16 07:30:20;;;;;;;28.27;19.90;;;6.80;97.20;;;;;;1701937;29;20257;-79
2021/12/16 07:31:11;;;;;;;30.00;20.67;;;6.80;97.20;;;;;;1707745;29;20221;-79
2021/12/16 07:32:03;;;;;;;28.50;20.85;;;6.80;97.20;;;;;;1708794;29;20301;-79
2021/12/16 07:32:54;;;;;;;29.38;20.90;;;6.80;97.20;;;;;;1708624;28;20206;-79
2021/12/16 07:33:46;;;;;;;31.05;21.55;;;6.80;97.20;;;;;;1708410;29;20707;-79
2021/12/16 07:34:38;;;;;;;28.90;21.02;;;6.90;97.20;;;;;;1708670;29;20542;-79
2021/12/16 07:35:29;;;;;;;29.77;20.98;;;6.90;97.20;;;;;;1707986;28;20214;-79
2021/12/16 07:36:21;;;;;;;30.15;22.00;;;6.90;97.20;;;;;;1707985;28;20729;-79
2021/12/16 07:37:12;;;;;;;26.67;20.17;;;6.90;97.20;;;;;;1707389;29;20198;-79
2021/12/16 07:38:05;;;;;;;29.87;21.47;;;6.90;97.20;;;;;;1707794;28;20195;-79
2021/12/16 07:38:56;;;;;;;28.33;20.92;;;6.90;97.20;;;;;;1707692;29;20521;-79
2021/12/16 07:39:49;;;;;;;28.63;21.30;;;6.90;97.20;;;;;;1707826;28;20546;-79
2021/12/16 07:40:43;;;;;;;26.48;19.98;;;6.80;97.20;;;;;;1707545;29;20226;-79
2021/12/16 07:41:35;;;;;;;29.40;21.13;;;6.80;97.20;;;;;;1708189;28;20214;-80
2021/12/16 07:42:30;;;;;;;28.13;19.48;;;6.80;97.20;;;;;;1708514;28;20234;-79
2021/12/16 07:43:40;;;;;;;28.88;20.98;;;6.80;97.20;;;;;;1708534;28;20234;-79
2021/12/16 07:44:32;;;;;;;28.10;20.33;;;6.80;97.20;;;;;;1708338;28;20205;-79
2021/12/16 07:45:23;;;;;;;28.95;20.65;;;6.80;97.20;;;;;;1708219;28;20662;-79
2021/12/16 07:46:15;;;;;;;27.37;20.00;;;6.80;97.20;;;;;;1708492;28;20654;-79
2021/12/16 07:47:08;;;;;;;29.42;20.90;;;6.80;97.20;;;;;;1708524;28;20203;-79
2021/12/16 07:48:00;;;;;;;25.60;18.60;;;6.80;97.20;;;;;;1707662;28;20195;-79
2021/12/16 07:48:52;;;;;;;27.48;20.77;;;6.80;97.20;;;;;;1707857;28;20221;-79
2021/12/16 07:49:44;;;;;;;28.10;20.73;;;6.90;97.20;;;;;;1708559;28;20221;-79
2021/12/16 07:50:37;;;;;;;27.95;20.02;;;6.90;97.20;;;;;;1708520;28;20254;-79
2021/12/16 07:51:29;;;;;;;28.20;20.52;;;6.90;97.20;;;;;;1708358;28;20210;-79
2021/12/16 07:52:21;;;;;;;29.13;20.48;;;7.00;97.20;;;;;;1708470;28;20457;-79
2021/12/16 07:53:13;;;;;;;28.38;20.23;;;7.00;97.20;;;;;;1708574;29;20214;-79
2021/12/16 07:54:04;;;;;;;26.10;18.08;;;7.00;97.20;;;;;;1708810;29;20693;-79
2021/12/16 07:54:56;;;;;;;27.65;20.75;;;7.00;97.20;;;;;;1708418;29;20713;-79
2021/12/16 07:55:47;;;;;;;25.30;19.30;;;7.00;97.20;;;;;;1708472;29;20210;-79
2021/12/16 07:56:40;;;;;;;25.25;19.00;;;7.00;97.20;;;;;;1708612;29;20226;-79
2021/12/16 07:57:31;;;;;;;25.33;18.15;;;7.00;97.20;;;;;;1707989;29;20205;-79
2021/12/16 07:58:23;;;;;;;25.93;19.70;;;7.00;97.20;;;;;;1707770;28;20208;-79
2021/12/16 07:59:17;;;;;;;23.45;17.83;;;7.00;97.20;;;;;;1707483;29;20485;-79
2021/12/16 08:00:12;;;;;;;23.63;18.75;;;7.00;97.20;;;;;;1707448;29;20633;-79
2021/12/16 08:01:04;;;;;;;23.83;17.80;;;7.00;97.20;;;;;;1707332;28;20237;-79
2021/12/16 08:01:56;;;;;;;24.55;18.52;;;6.90;97.20;;;;;;1707406;28;20249;-79
2021/12/16 08:02:48;;;;;;;24.23;18.05;;;7.00;97.20;;;;;;1708283;28;20202;-79
2021/12/16 08:03:41;;;;;;;24.67;18.33;;;7.00;97.20;;;;;;1707774;29;20233;-79
2021/12/16 08:04:40;;;;;;;23.63;19.05;;;7.00;97.20;;;;;;1708130;28;20616;-79
2021/12/16 08:05:35;;;;;;;21.42;17.65;;;7.00;97.20;;;;;;1708224;29;20576;-79
2021/12/16 08:06:29;;;;;;;24.95;18.63;;;7.00;97.20;;;;;;1703923;28;20203;-79
2021/12/16 08:07:21;;;;;;;22.60;17.77;;;7.10;97.20;;;;;;1706828;28;20195;-79
2021/12/16 08:08:13;;;;;;;22.13;17.23;;;7.10;97.20;;;;;;1710673;28;20217;-79
2021/12/16 08:09:07;;;;;;;22.55;17.20;;;7.10;97.20;;;;;;1712158;28;20205;-79
2021/12/16 08:09:59;;;;;;;23.95;17.08;;;7.10;97.20;;;;;;1712078;28;20209;-79
2021/12/16 08:10:50;;;;;;;23.90;17.88;;;7.10;97.20;;;;;;1709785;28;20222;-79
2021/12/16 08:11:44;;;;;;;22.52;18.55;;;7.10;97.20;;;;;;1714916;28;20209;-79
2021/12/16 08:12:35;;;;;;;22.13;17.65;;;7.10;97.20;;;;;;1714928;28;20241;-79
2021/12/16 08:13:27;;;;;;;24.10;18.53;;;7.10;97.20;;;;;;1714892;28;20213;-79
2021/12/16 08:14:19;;;;;;;23.45;18.77;;;7.10;97.20;;;;;;1714693;28;20209;-79
2021/12/16 08:15:11;;;;;;;23.48;18.08;;;7.20;97.20;;;;;;1712639;28;20240;-79
2021/12/16 08:16:03;;;;;;;21.92;17.00;;;7.20;97.20;;;;;;1707832;28;20209;-79
2021/12/16 08:16:56;;;;;;;25.98;18.95;;;7.20;97.20;;;;;;1708068;28;20210;-79
2021/12/16 08:17:47;;;;;;;23.92;19.23;;;7.20;97.20;;;;;;1701500;29;20678;-79
2021/12/16 08:18:39;;;;;;;22.67;17.90;;;7.10;97.20;;;;;;1701286;29;20617;-79
2021/12/16 08:19:30;;;;;;;22.95;17.05;;;7.10;97.20;;;;;;1701734;29;20889;-78
2021/12/16 08:20:23;;;;;;;23.53;17.90;;;7.10;97.20;;;;;;1701202;29;20214;-79
2021/12/16 08:21:15;;;;;;;20.52;16.67;;;7.10;97.20;;;;;;1701368;29;20501;-78
2021/12/16 08:22:06;;;;;;;24.33;17.42;;;7.10;97.20;;;;;;1701587;29;21154;-79
2021/12/16 08:22:58;;;;;;;21.83;17.10;;;7.10;97.20;;;;;;1701626;29;20563;-79
2021/12/16 08:23:48;;;;;;;21.23;16.80;;;7.10;97.20;;;;;;1701634;29;20236;-79
2021/12/16 08:24:40;;;;;;;23.23;17.97;;;7.10;97.20;;;;;;1701327;29;20647;-79
2021/12/16 08:25:32;;;;;;;20.70;15.98;;;7.10;97.20;;;;;;1701563;29;20799;-79
2021/12/16 08:26:25;;;;;;;21.23;15.85;;;7.10;97.20;;;;;;1701805;29;20207;-78
2021/12/16 08:27:16;;;;;;;22.70;17.50;;;7.10;97.20;;;;;;1701535;29;20328;-78
2021/12/16 08:28:08;;;;;;;20.88;16.95;;;7.10;97.20;;;;;;1701614;29;20315;-79
2021/12/16 08:29:00;;;;;;;19.73;15.85;;;7.20;97.20;;;;;;1701351;29;20214;-79
2021/12/16 08:29:52;;;;;;;20.50;16.88;;;7.20;97.20;;;;;;1701557;29;20281;-79
2021/12/16 08:30:45;;;;;;;20.98;17.20;;;7.30;97.20;;;;;;1701609;29;20262;-79
2021/12/16 08:31:38;;;;;;;21.20;16.80;;;7.30;97.20;;;;;;1706777;29;20226;-79
2021/12/16 08:32:28;;;;;;;22.77;16.63;;;7.30;97.20;;;;;;1707658;28;20213;-78
2021/12/16 08:33:21;;;;;;;21.00;16.90;;;7.30;97.20;;;;;;1707683;28;20213;-79
2021/12/16 08:34:12;;;;;;;20.77;15.77;;;7.30;97.20;;;;;;1707897;28;20210;-79
2021/12/16 08:35:09;;;;;;;19.42;15.80;;;7.30;97.20;;;;;;1707864;29;20194;-79
2021/12/16 08:36:04;;;;;;;20.92;16.80;;;7.30;97.20;;;;;;1705158;29;20309;-79
2021/12/16 08:36:54;;;;;;;22.80;18.08;;;7.30;97.20;;;;;;1707833;28;20264;-79
2021/12/16 08:37:46;;;;;;;20.30;16.20;;;7.30;97.20;;;;;;1701086;29;20211;-80
2021/12/16 08:38:38;;;;;;;20.00;16.15;;;7.30;97.20;;;;;;1701091;29;20203;-79
2021/12/16 08:39:30;;;;;;;19.73;16.38;;;7.20;97.20;;;;;;1701224;29;20211;-79
2021/12/16 08:40:22;;;;;;;19.27;16.15;;;7.20;97.20;;;;;;1701275;29;20211;-80
2021/12/16 08:41:18;;;;;;;19.85;15.60;;;7.20;97.20;;;;;;1706643;28;20195;-78
2021/12/16 08:42:09;;;;;;;21.73;17.27;;;7.20;97.20;;;;;;1707752;28;20214;-78
2021/12/16 08:43:01;;;;;;;19.55;15.75;;;7.20;97.20;;;;;;1707790;28;20281;-78
2021/12/16 08:43:53;;;;;;;19.98;16.65;;;7.20;97.20;;;;;;1707665;28;20198;-78
2021/12/16 08:44:45;;;;;;;20.15;15.93;;;7.20;97.20;;;;;;1707755;28;20265;-78
2021/12/16 08:45:37;;;;;;;22.65;17.58;;;7.20;97.20;;;;;;1707647;29;20206;-78
2021/12/16 08:46:34;;;;;;;20.25;16.55;;;7.20;97.20;;;;;;1707477;28;20202;-78
2021/12/16 08:47:25;;;;;;;19.35;15.50;;;7.20;97.20;;;;;;1707774;29;20692;-78
2021/12/16 08:48:17;;;;;;;21.10;16.97;;;7.10;97.20;;;;;;1707945;29;20581;-78
2021/12/16 08:49:09;;;;;;;20.67;16.70;;;7.10;97.20;;;;;;1707463;28;20512;-78
2021/12/16 08:50:00;;;;;;;21.80;16.05;;;7.10;97.20;;;;;;1707999;28;20202;-79
2021/12/16 08:50:52;;;;;;;25.33;19.50;;;7.10;97.20;;;;;;1708244;28;20229;-79
2021/12/16 08:51:48;;;;;;;26.50;21.02;;;7.10;97.20;;;;;;1707578;28;20693;-78
2021/12/16 08:52:40;;;;;;;25.52;20.08;;;7.10;97.20;;;;;;1707957;28;20265;-78
2021/12/16 08:53:31;;;;;;;24.48;19.73;;;7.10;97.20;;;;;;1707723;28;20210;-78
2021/12/16 08:54:23;;;;;;;24.53;19.97;;;7.10;97.20;;;;;;1707501;28;20191;-78
2021/12/16 08:55:15;;;;;;;22.40;19.20;;;7.10;97.20;;;;;;1707756;28;20493;-78
2021/12/16 08:56:07;;;;;;;22.83;18.70;;;7.10;97.20;;;;;;1707682;28;20202;-78
2021/12/16 08:56:58;;;;;;;23.48;19.80;;;7.10;97.20;;;;;;1707446;28;20241;-77
2021/12/16 08:57:50;;;;;;;26.80;22.77;;;7.10;97.20;;;;;;1707475;28;20221;-77
2021/12/16 08:58:43;;;;;;;23.10;20.52;;;7.10;97.20;;;;;;1707335;28;20537;-77
2021/12/16 08:59:35;;;;;;;21.23;18.70;;;7.10;97.20;;;;;;1706914;28;20202;-78
2021/12/16 09:00:31;;;;;;;22.75;18.77;;;7.10;97.20;;;;;;1707457;28;20233;-78
2021/12/16 09:01:25;;;;;;;21.42;19.13;;;7.10;97.20;;;;;;1707514;29;20197;-78
2021/12/16 09:02:19;;;;;;;22.52;20.10;;;7.10;97.20;;;;;;1707786;28;20624;-78
2021/12/16 09:03:11;;;;;;;21.25;17.75;;;7.10;97.20;;;;;;1707679;28;20621;-77
2021/12/16 09:04:03;;;;;;;20.98;17.02;;;7.10;97.20;;;;;;1707939;28;20210;-78
2021/12/16 09:04:55;;;;;;;20.23;16.83;;;7.10;97.20;;;;;;1707686;28;20241;-78
2021/12/16 09:05:45;;;;;;;18.70;15.90;;;7.10;97.20;;;;;;1707936;28;20213;-78
2021/12/16 09:06:38;;;;;;;17.80;15.00;;;7.10;97.20;;;;;;1707109;28;20226;-78
2021/12/16 09:07:30;;;;;;;18.98;15.90;;;7.10;97.20;;;;;;1707435;28;20198;-78
2021/12/16 09:08:22;;;;;;;19.63;15.40;;;7.10;97.20;;;;;;1707837;28;20210;-78
2021/12/16 09:09:13;;;;;;;17.48;14.57;;;7.20;97.20;;;;;;1707507;28;20241;-78
2021/12/16 09:10:07;;;;;;;16.70;13.82;;;7.10;97.20;;;;;;1707780;28;20202;-78
2021/12/16 09:11:03;;;;;;;19.77;16.98;;;7.10;97.20;;;;;;1707591;28;20226;-78
2021/12/16 09:12:06;;;;;;;18.20;15.63;;;7.10;97.20;;;;;;1707959;28;20267;-78
2021/12/16 09:13:03;;;;;;;19.90;15.70;;;7.10;97.20;;;;;;1707836;28;20214;-78
2021/12/16 09:13:57;;;;;;;18.50;15.43;;;7.10;97.20;;;;;;1708116;28;20206;-78
2021/12/16 09:14:48;;;;;;;19.92;15.02;;;7.10;97.20;;;;;;1707716;28;20720;-78
2021/12/16 09:15:44;;;;;;;20.97;16.43;;;7.10;97.20;;;;;;1707368;28;20571;-78
2021/12/16 09:16:35;;;;;;;17.95;15.35;;;7.10;97.20;;;;;;1707860;28;20270;-78
2021/12/16 09:17:27;;;;;;;20.05;16.20;;;7.10;97.20;;;;;;1707894;28;20226;-78
2021/12/16 09:18:21;;;;;;;20.13;15.35;;;7.10;97.20;;;;;;1708012;28;20207;-78
2021/12/16 09:19:12;;;;;;;20.83;15.70;;;7.10;97.20;;;;;;1707628;28;20635;-78
2021/12/16 09:20:05;;;;;;;18.20;14.88;;;7.10;97.20;;;;;;1707484;28;20233;-78
2021/12/16 09:21:01;;;;;;;18.00;15.60;;;7.10;97.20;;;;;;1707706;28;20230;-77
2021/12/16 09:21:52;;;;;;;18.02;14.45;;;7.10;97.20;;;;;;1707774;28;20241;-78
2021/12/16 09:22:45;;;;;;;20.60;16.50;;;7.10;97.20;;;;;;1707793;29;20217;-78
2021/12/16 09:23:36;;;;;;;19.60;15.15;;;7.10;97.20;;;;;;1707701;28;20481;-78
2021/12/16 09:24:28;;;;;;;18.88;15.57;;;7.10;97.20;;;;;;1707772;28;20453;-78
2021/12/16 09:25:20;;;;;;;20.60;16.23;;;7.10;97.20;;;;;;1707765;28;20217;-78
2021/12/16 09:26:13;;;;;;;19.52;15.60;;;7.20;97.20;;;;;;1707676;29;20228;-78
2021/12/16 09:27:04;;;;;;;17.60;14.77;;;7.20;97.20;;;;;;1707895;28;20694;-78
2021/12/16 09:27:56;;;;;;;19.73;16.05;;;7.20;97.20;;;;;;1707724;28;20202;-78
2021/12/16 09:28:47;;;;;;;20.10;15.98;;;7.20;97.20;;;;;;1707794;29;20218;-78
2021/12/16 09:29:39;;;;;;;19.83;15.70;;;7.20;97.20;;;;;;1707710;28;20572;-78
2021/12/16 09:30:31;;;;;;;21.05;15.95;;;7.20;97.20;;;;;;1707609;28;20202;-78
2021/12/16 09:31:26;;;;;;;20.00;16.25;;;7.20;97.20;;;;;;1707915;28;20615;-78
2021/12/16 09:32:18;;;;;;;19.17;16.38;;;7.20;97.20;;;;;;1707847;28;20203;-78
2021/12/16 09:33:14;;;;;;;21.88;16.70;;;7.20;97.20;;;;;;1707946;28;20203;-78
2021/12/16 09:34:08;;;;;;;19.95;15.52;;;7.20;97.20;;;;;;1707660;28;20206;-78
2021/12/16 09:35:00;;;;;;;22.08;16.77;;;7.20;97.20;;;;;;1707470;28;20203;-78
2021/12/16 09:35:54;;;;;;;19.60;16.35;;;7.20;97.20;;;;;;1707609;28;20240;-78
2021/12/16 09:36:45;;;;;;;19.73;16.25;;;7.20;97.20;;;;;;1707636;28;20899;-78
2021/12/16 09:37:37;;;;;;;22.73;17.37;;;7.20;97.20;;;;;;1707578;28;20583;-78
2021/12/16 09:38:30;;;;;;;19.52;16.08;;;7.20;97.20;;;;;;1707563;28;20670;-78
2021/12/16 09:39:24;;;;;;;22.40;17.45;;;7.30;97.20;;;;;;1707388;28;20778;-78
2021/12/16 09:40:20;;;;;;;19.25;16.00;;;7.30;97.20;;;;;;1707342;28;20289;-78
2021/12/16 09:41:12;;;;;;;19.33;15.57;;;7.30;97.20;;;;;;1707568;28;20849;-77
2021/12/16 09:42:05;;;;;;;19.30;15.48;;;7.30;97.20;;;;;;1707515;28;20206;-77
2021/12/16 09:42:57;;;;;;;19.20;15.93;;;7.30;97.20;;;;;;1707619;28;20295;-78
2021/12/16 09:43:52;;;;;;;21.50;17.63;;;7.40;97.20;;;;;;1707484;28;20202;-78
2021/12/16 09:44:42;;;;;;;19.65;15.43;;;7.40;97.20;;;;;;1707278;28;20241;-78
2021/12/16 09:45:34;;;;;;;23.33;16.13;;;7.50;97.20;;;;;;1707465;29;20205;-78
2021/12/16 09:46:28;;;;;;;18.27;15.65;;;7.50;97.20;;;;;;1707347;29;20457;-78
2021/12/16 09:47:21;;;;;;;20.40;16.25;;;7.50;97.20;;;;;;1707980;28;20201;-78
2021/12/16 09:48:12;;;;;;;19.38;16.33;;;7.50;97.20;;;;;;1707786;29;20237;-78
2021/12/16 09:49:04;;;;;;;16.40;14.17;;;7.60;97.20;;;;;;1707678;29;20225;-78
2021/12/16 09:49:55;;;;;;;17.77;15.25;;;7.60;97.20;;;;;;1707678;29;20445;-78
2021/12/16 09:50:47;;;;;;;17.77;15.10;;;7.60;97.20;;;;;;1707835;28;20309;-78
2021/12/16 09:51:41;;;;;;;19.60;15.70;;;7.60;97.20;;;;;;1707742;29;20233;-78
2021/12/16 09:52:33;;;;;;;18.10;15.38;;;7.60;97.20;;;;;;1707520;28;20211;-78
2021/12/16 09:53:25;;;;;;;17.52;15.02;;;7.60;97.20;;;;;;1707647;28;20214;-78
2021/12/16 09:54:23;;;;;;;19.75;15.90;;;7.60;97.20;;;;;;1707683;28;20582;-78
2021/12/16 09:55:14;;;;;;;18.00;15.50;;;7.60;97.20;;;;;;1707635;28;20207;-78
2021/12/16 09:56:09;;;;;;;18.27;15.70;;;7.60;97.20;;;;;;1707807;28;20198;-78
2021/12/16 09:57:00;;;;;;;17.98;15.05;;;7.60;97.20;;;;;;1707843;28;20217;-78
2021/12/16 09:57:52;;;;;;;21.48;16.58;;;7.70;97.20;;;;;;1707279;28;20223;-78
2021/12/16 09:58:45;;;;;;;16.90;14.15;;;7.70;97.20;;;;;;1707470;29;20238;-78
2021/12/16 09:59:38;;;;;;;16.77;14.60;;;7.70;97.20;;;;;;1707528;29;20293;-78
2021/12/16 10:00:30;;;;;;;16.77;13.60;;;7.70;97.20;;;;;;1707343;29;20589;-78
2021/12/16 10:01:24;;;;;;;17.73;14.55;;;7.80;97.20;;;;;;1707353;28;20199;-78
2021/12/16 10:02:18;;;;;;;19.33;16.13;;;7.80;97.20;;;;;;1707654;28;20701;-78
2021/12/16 10:03:09;;;;;;;16.30;14.35;;;7.80;97.20;;;;;;1707618;28;20250;-78
2021/12/16 10:04:03;;;;;;;16.50;14.07;;;7.80;97.20;;;;;;1707765;28;20206;-78
2021/12/16 10:04:54;;;;;;;17.13;14.20;;;7.80;97.20;;;;;;1707657;28;20477;-78
2021/12/16 10:05:46;;;;;;;15.60;13.13;;;7.80;97.20;;;;;;1707762;28;20206;-78
2021/12/16 10:06:40;;;;;;;14.82;13.23;;;7.80;97.20;;;;;;1707359;28;20213;-78
2021/12/16 10:07:33;;;;;;;16.85;13.77;;;7.90;97.20;;;;;;1707093;28;20199;-78
2021/12/16 10:08:24;;;;;;;14.40;12.80;;;7.90;97.20;;;;;;1707135;28;20213;-78
2021/12/16 10:09:18;;;;;;;16.15;13.35;;;7.90;97.20;;;;;;1706484;28;20297;-78
2021/12/16 10:10:10;;;;;;;15.52;13.10;;;7.90;97.20;;;;;;1706860;28;20214;-78
2021/12/16 10:11:03;;;;;;;15.32;12.48;;;8.00;97.20;;;;;;1707217;28;20195;-78
2021/12/16 10:11:57;;;;;;;14.30;12.43;;;8.00;97.20;;;;;;1707988;28;20206;-78
2021/12/16 10:12:51;;;;;;;16.83;13.55;;;8.00;97.20;;;;;;1708110;29;20198;-78
2021/12/16 10:13:47;;;;;;;16.58;13.20;;;8.00;97.20;;;;;;1708210;28;20207;-78
2021/12/16 10:15:04;;;;;;;16.20;13.57;;;8.00;97.20;;;;;;1708192;29;20206;-78
2021/12/16 10:17:24;;;;;;;16.02;13.20;;;8.10;97.20;;;;;;1708006;28;20238;-78
2021/12/16 10:18:19;;;;;;;15.50;13.18;;;8.10;97.20;;;;;;1707800;28;20246;-78
2021/12/16 10:19:11;;;;;;;13.65;12.02;;;8.10;97.20;;;;;;1707928;28;20210;-78
2021/12/16 10:20:12;;;;;;;16.25;14.00;;;8.10;97.20;;;;;;1707907;28;20733;-78
2021/12/16 10:21:06;;;;;;;16.10;12.88;;;8.10;97.20;;;;;;1708111;29;20209;-78
2021/12/16 10:22:17;;;;;;;17.30;13.30;;;8.10;97.20;;;;;;1708155;29;20202;-78
2021/12/16 10:23:13;;;;;;;17.20;13.50;;;8.10;97.20;;;;;;1708137;28;20206;-78
2021/12/16 10:24:04;;;;;;;15.65;13.15;;;8.10;97.20;;;;;;1708275;29;20600;-78
2021/12/16 10:25:15;;;;;;;16.75;13.77;;;8.10;97.20;;;;;;1708866;28;20666;-78
2021/12/16 10:26:09;;;;;;;17.75;14.98;;;8.10;97.20;;;;;;1708758;28;20217;-78
2021/12/16 10:27:08;;;;;;;16.45;14.57;;;8.20;97.20;;;;;;1708942;29;20218;-78
2021/12/16 10:28:07;;;;;;;16.17;13.93;;;8.20;97.20;;;;;;1708839;28;20217;-78
2021/12/16 10:29:02;;;;;;;15.50;13.43;;;8.20;97.20;;;;;;1708531;28;20597;-78
2021/12/16 10:30:03;;;;;;;15.63;13.20;;;8.10;97.20;;;;;;1708913;28;20214;-78
2021/12/16 10:31:02;;;;;;;17.80;14.25;;;8.20;97.20;;;;;;1708731;29;20222;-78
2021/12/16 10:31:53;;;;;;;17.88;15.60;;;8.10;97.20;;;;;;1708685;28;20211;-78
2021/12/16 10:32:48;;;;;;;18.00;14.43;;;8.10;97.20;;;;;;1708763;28;20198;-78
2021/12/16 10:33:44;;;;;;;16.27;13.95;;;8.20;97.20;;;;;;1708839;28;20237;-78
2021/12/16 10:34:35;;;;;;;18.02;14.82;;;8.20;97.20;;;;;;1708733;28;20202;-78
2021/12/16 10:35:29;;;;;;;18.77;15.13;;;8.20;97.20;;;;;;1709030;28;20208;-78
2021/12/16 10:36:25;;;;;;;19.15;15.73;;;8.20;97.20;;;;;;1708833;28;20253;-78
2021/12/16 10:37:26;;;;;;;18.85;14.30;;;8.20;97.20;;;;;;1708956;28;20226;-78
2021/12/16 10:38:21;;;;;;;19.23;15.70;;;8.30;97.20;;;;;;1708756;28;20620;-78
2021/12/16 10:39:16;;;;;;;19.58;15.20;;;8.20;97.20;;;;;;1708288;28;20241;-78
2021/12/16 10:40:31;;;;;;;17.85;14.52;;;8.20;97.20;;;;;;1708631;28;20261;-78
2021/12/16 10:41:26;;;;;;;18.65;13.98;;;8.20;97.20;;;;;;1708826;28;20207;-78
2021/12/16 10:42:18;;;;;;;20.30;15.02;;;8.20;97.20;;;;;;1708715;28;20214;-78
2021/12/16 10:43:13;;;;;;;17.13;14.55;;;8.20;97.20;;;;;;1708836;28;20234;-78
2021/12/16 10:44:08;;;;;;;16.55;13.75;;;8.20;97.20;;;;;;1708498;28;20199;-78
2021/12/16 10:44:58;;;;;;;18.55;15.00;;;8.20;97.20;;;;;;1708854;28;20202;-78
2021/12/16 10:45:54;;;;;;;17.07;13.87;;;8.20;97.20;;;;;;1708465;28;20209;-78
2021/12/16 10:46:49;;;;;;;18.40;14.65;;;8.30;97.20;;;;;;1708819;28;20667;-78